Terminal Aerodrome Forecast
Issued by NWS Buffalo, NY

Home | Current Version | Previous Version | Text Only | Print | Product List | Glossary On
Versions: 1 2 3 4 5 6 7 8 9 10 11 12 13 14 15 16 17 18 19 20 21 22 23 24
000
FTUS41 KBUF 171120
TAFROC
TAF
KROC 171120Z 1712/1812 00000KT P6SM SCT250
     FM171500 14005KT P6SM BKN250
     FM172000 12008KT P6SM BKN090
     FM172300 12008KT 6SM -SHRA VCTS OVC040CB
     FM180300 16008KT P6SM VCSH OVC050
     FM180600 18009KT 6SM -SHRA OVC045
     FM181000 20008KT P6SM VCSH BKN035=

USA.gov is the U.S. government's official web portal to all federal, state and local government web resources and services.